METAR v bližini

 

LJLJ - Ljubljana/Brnik, Slovenia
Oddaljenost od postaje: Z 41km
Podatki zajeti: 19/12/2018 02:00
Rahlo oblačno
Rahlo oblačno
 Veter iz smeri VJV
Veter: VJV 4 km/h
Temperatura: -4°C
Rosišče: -4°C
Vlažnost: 100%
Tlak: 1026 hPa
Oblačnost: Rahlo oblačno
Vidljivost: 8 km
Podrobnosti o oblakih: Rahlo oblačno 91 m
2018/12/19 01:00 LJLJ 190100Z 12002KT 8000 FEW003 M04/M04 Q1026 NOSIG
LJMB - Maribor, Slovenia
Oddaljenost od postaje: SV 63km
Podatki zajeti: 19/12/2018 02:00
Jasno
Jasno
 Veter iz smeri calm
Veter: Tišina
Temperatura: -2°C
Rosišče: -3°C
Vlažnost: 93%
Tlak: 1026 hPa
Oblačnost: Jasno
Vidljivost: 7 km
2018/12/19 01:00 LJMB 190100Z AUTO 00000KT 7000 NCD M02/M03 Q1026
 
LJPZ - Portoroz, Slovenia
Oddaljenost od postaje: JZ 130km
Podatki zajeti: 19/12/2018 02:00
Jasno
Jasno
 Veter iz smeri VJV
Veter: VJV 13 km/h
Temperatura: 0°C
Občutek mraza zaradi vetra: -4°C
Rosišče: -3°C
Vlažnost: 80%
Tlak: 1025 hPa
Oblačnost: Jasno
Vidljivost: 10 km
2018/12/19 01:00 LJPZ 190100Z AUTO 12007KT 9999 NCD 00/M03 Q1025
LJCE - Cerklje, Slovenia
Oddaljenost od postaje: VJV 49km
Podatki zajeti: 19/12/2018 02:00
Megla ki zmrzuje, Oblačno
Megla ki zmrzuje, Oblačno
 Veter iz smeri Z
Veter: Z 6 km/h
Temperatura: -5°C
Rosišče: -6°C
Vlažnost: 93%
Tlak: 1028 hPa
Stanje: Megla ki zmrzuje
Oblačnost: Oblačno
Vidljivost: 0 km
Podrobnosti o oblakih: Oblačno 30 m
2018/12/19 01:00 LJCE 190100Z AUTO 26003KT 0050 R09/0200N FZFG VV001 M05/M06 Q1028
 
LDZA - Zagreb/Pleso, Croatia
Oddaljenost od postaje: VJV 96km
Podatki zajeti: 19/12/2018 02:00
Meglica, Oblačno
Meglica, Oblačno
 Veter iz smeri calm
Veter: Tišina
Temperatura: -2°C
Rosišče: -3°C
Vlažnost: 93%
Tlak: 1028 hPa
Stanje: Meglica
Oblačnost: Oblačno
Vidljivost: 3 km
Podrobnosti o oblakih: Oblačno 1158 m
2018/12/19 01:00 LDZA 190100Z 00000KT 3000 BR OVC038 M02/M03 Q1028 NOSIG
LDRI - Rijeka/Omisalj, Croatia
Oddaljenost od postaje: JJZ 109km
Podatki zajeti: 19/12/2018 02:00
Jasno
Jasno
 Veter iz smeri SV
Veter: SV 13 km/h
Temperatura: 5°C
Občutek mraza zaradi vetra: 2°C
Rosišče: -3°C
Vlažnost: 57%
Tlak: 1025 hPa
Stanje: Jasno
Vidljivost: večja od 10 km
2018/12/19 01:00 LDRI 190100Z 05007KT CAVOK 05/M03 Q1025
 
LDPL - Pula, Croatia
Oddaljenost od postaje: JJZ 164km
Podatki zajeti: 19/12/2018 02:00
Jasno
Jasno
 Veter iz smeri SSV
Veter: SSV 11 km/h
Temperatura: 3°C
Občutek mraza zaradi vetra: 0°C
Rosišče: -3°C
Vlažnost: 65%
Tlak: 1025 hPa
Stanje: Jasno
Vidljivost: večja od 10 km
2018/12/19 01:00 LDPL 190100Z 03006KT CAVOK 03/M03 Q1025
LOWK - Klagenfurt(Civ/M, Austria
Oddaljenost od postaje: SZ 76km
Podatki zajeti: 19/12/2018 01:50
Oblačno
Oblačno
 Veter iz smeri ZSZ
Veter: ZSZ 6 km/h
Temperatura: -5°C
Rosišče: -6°C
Vlažnost: 93%
Tlak: 1027 hPa
Oblačnost: Oblačno
Vidljivost: 10 km
Podrobnosti o oblakih: Rahlo oblačno 30 m
Oblačno 610 m
2018/12/19 00:50 LOWK 190050Z AUTO 30003KT 9999 FEW001 OVC020 M05/M06 Q1027
 
LOWG - Graz (mil/Civ), Austria
Oddaljenost od postaje: SSV 100km
Podatki zajeti: 19/12/2018 01:50
Oblačno
Oblačno
 Veter iz smeri spremenljiv
Veter: spremenljiv 2 km/h
Temperatura: -2°C
Rosišče: -3°C
Vlažnost: 93%
Tlak: 1026 hPa
Oblačnost: Oblačno
Vidljivost: 9 km
Podrobnosti o oblakih: Rahlo oblačno 853 m
Oblačno 914 m
2018/12/19 00:50 LOWG 190050Z AUTO VRB01KT 9000 FEW028 OVC030 M02/M03 Q1026
LOWZ - Zell Am See, Austria
Oddaljenost od postaje: SZ 211km
Podatki zajeti: 31/12/2016 17:00
Ni posodobljen
Jasno
Jasno
 Veter iz smeri spremenljiv
Veter: spremenljiv 4 km/h
Temperatura: -4°C
Rosišče: -7°C
Vlažnost: 80%
Tlak: 1031 hPa
Oblačnost: Jasno
2016/12/31 16:00 LOWZ 311600Z VRB02KT 50KM SKC M04/M07 Q1031
 
LOAN - Wr.neustadt East, Austria
Oddaljenost od postaje: SSV 212km
Podatki zajeti: 18/12/2018 16:00
Ni posodobljen
Delno oblačno
Delno oblačno
 Veter iz smeri spremenljiv
Veter: spremenljiv 4 km/h
Oblačnost: Delno oblačno
Podrobnosti o oblakih: Rahlo oblačno 366 m
Delno oblačno 1219 m
2018/12/18 15:00 LOAN 181500Z VRB02KT 20KM FEW012ST SCT040SC
LIPQ - Ronchi Legionari, Italy
Oddaljenost od postaje: JZ 35km
Podatki zajeti: 19/12/2018 01:50
Jasno
Jasno
 Veter iz smeri spremenljiv
Veter: spremenljiv 4 km/h
Temperatura: 0°C
Rosišče: -3°C
Vlažnost: 80%
Tlak: 1025 hPa
Oblačnost: Jasno
Vidljivost: 10 km
2018/12/19 00:50 LIPQ 190050Z AUTO VRB02KT 9999 NCD 00/M03 Q1025
 
LIVT - Trieste, Italy
Oddaljenost od postaje: ZJZ 109km
Podatki zajeti: 18/12/2018 18:55
Ni posodobljen
Jasno
Jasno
 Veter iz smeri V
Veter: V 13 km/h
Temperatura: 6°C
Občutek mraza zaradi vetra: 3°C
Rosišče: -1°C
Vlažnost: 61%
Tlak: 1026 hPa
Stanje: Jasno
Vidljivost: večja od 10 km
2018/12/18 17:55 LIVT 181755Z 09007KT CAVOK 06/M01 Q1026 RMK SKC QUK / QUL / VIS MAR 20 KM VIS MIN 9999
LIVO - Tarvisio, Italy
Oddaljenost od postaje: SSZ 49km
Podatki zajeti: 18/12/2018 18:55
Ni posodobljen
Jasno
Jasno
 Veter iz smeri SZ
Veter: SZ 4 km/h
Temperatura: -3°C
Rosišče: -3°C
Vlažnost: 100%
Tlak: 1025 hPa
Stanje: Jasno
Vidljivost: večja od 10 km
2018/12/18 17:55 LIVO 181755Z 31002KT CAVOK M03/M03 Q1025 RMK SKC VIS MIN 9999
 
LIPZ - Venezia/Tessera, Italy
Oddaljenost od postaje: ZJZ 217km
Podatki zajeti: 19/12/2018 01:50
Jasno
Jasno
 Veter iz smeri S
Veter: S 9 km/h
Temperatura: 1°C
Občutek mraza zaradi vetra: -2°C
Rosišče: -2°C
Vlažnost: 81%
Tlak: 1026 hPa
Stanje: Jasno
Vidljivost: večja od 10 km
2018/12/19 00:50 LIPZ 190050Z 35005KT CAVOK 01/M02 Q1026 NOSIG
LHSM - Balaton, Hungary
Oddaljenost od postaje: VSV 177km
Podatki zajeti: 18/12/2018 16:45
Ni posodobljen
Rahlo oblačno
Rahlo oblačno
 Veter iz smeri JV
Veter: JV 6 km/h
Temperatura: -1°C
Rosišče: -1°C
Vlažnost: 100%
Tlak: 1029 hPa
Oblačnost: Rahlo oblačno
Vidljivost: 8 km
Podrobnosti o oblakih: Rahlo oblačno 1006 m
2018/12/18 15:45 LHSM 181545Z 14003KT 8000 FEW033 M01/M01 Q1029